APG29 RPLL-RPVI
Flight info
| Callsign | APG29 |
|---|---|
| Flight time | N/A |
| Altitude | 35000 |
| Route | VERDE2R VERDE W24 TAPER B472 LAMBO LAMBO2S |
| Aircraft | A20N/M-SDE2E3FGHIRWXY/LB1 |
Departure
| Time | 2026-05-04 01:26 |
|---|---|
| Airport | Ninoy Aquino International Airport (RPLL) |
Arrival
| Time | N/A |
|---|---|
| Airport | Iloilo International Airport (RPVI) |
| Time | Latitude | Longitude | Altitude | Speed | Heading |
|---|---|---|---|---|---|
| 2026-05-04 01:10 | 14.50886 | 121.01334 | 82 ft | 0 kts | 329° |
| 2026-05-04 01:11 | 14.50875 | 121.01341 | 82 ft | 2 kts | 329° |
| 2026-05-04 01:12 | 14.50862 | 121.01349 | 82 ft | 2 kts | 329° |
| 2026-05-04 01:12 | 14.50850 | 121.01356 | 82 ft | 2 kts | 329° |
| 2026-05-04 01:12 | 14.50837 | 121.01365 | 82 ft | 2 kts | 329° |
| 2026-05-04 01:12 | 14.50824 | 121.01372 | 82 ft | 2 kts | 329° |
| 2026-05-04 01:13 | 14.50816 | 121.01378 | 82 ft | 2 kts | 329° |
| 2026-05-04 01:13 | 14.50805 | 121.01389 | 82 ft | 2 kts | 292° |
| 2026-05-04 01:13 | 14.50803 | 121.01405 | 82 ft | 2 kts | 262° |
| 2026-05-04 01:13 | 14.50805 | 121.01415 | 82 ft | 0 kts | 243° |
| 2026-05-04 01:14 | 14.50809 | 121.01421 | 82 ft | 0 kts | 240° |
| 2026-05-04 01:17 | 14.50806 | 121.01417 | 82 ft | 1 kts | 240° |
| 2026-05-04 01:18 | 14.50798 | 121.01403 | 82 ft | 2 kts | 240° |
| 2026-05-04 01:18 | 14.50786 | 121.01380 | 82 ft | 4 kts | 240° |
| 2026-05-04 01:18 | 14.50769 | 121.01348 | 82 ft | 5 kts | 241° |
| 2026-05-04 01:18 | 14.50736 | 121.01318 | 82 ft | 6 kts | 196° |
| 2026-05-04 01:19 | 14.50684 | 121.01317 | 82 ft | 7 kts | 195° |
| 2026-05-04 01:19 | 14.50644 | 121.01273 | 82 ft | 9 kts | 239° |
| 2026-05-04 01:19 | 14.50610 | 121.01212 | 82 ft | 10 kts | 240° |
| 2026-05-04 01:19 | 14.50571 | 121.01142 | 82 ft | 11 kts | 240° |
| 2026-05-04 01:20 | 14.50530 | 121.01067 | 82 ft | 12 kts | 240° |
| 2026-05-04 01:20 | 14.50483 | 121.00985 | 82 ft | 13 kts | 240° |
| 2026-05-04 01:20 | 14.50435 | 121.00897 | 82 ft | 14 kts | 240° |
| 2026-05-04 01:20 | 14.50380 | 121.00800 | 82 ft | 16 kts | 240° |
| 2026-05-04 01:21 | 14.50323 | 121.00696 | 82 ft | 17 kts | 240° |
| 2026-05-04 01:21 | 14.50265 | 121.00592 | 82 ft | 16 kts | 240° |
| 2026-05-04 01:21 | 14.50207 | 121.00487 | 82 ft | 16 kts | 240° |
| 2026-05-04 01:21 | 14.50149 | 121.00383 | 82 ft | 17 kts | 240° |
| 2026-05-04 01:22 | 14.50089 | 121.00274 | 82 ft | 16 kts | 240° |
| 2026-05-04 01:22 | 14.50029 | 121.00168 | 82 ft | 17 kts | 241° |
| 2026-05-04 01:22 | 14.49975 | 121.00069 | 82 ft | 11 kts | 240° |
| 2026-05-04 01:22 | 14.49937 | 121.00002 | 82 ft | 10 kts | 240° |
| 2026-05-04 01:23 | 14.49895 | 120.99966 | 82 ft | 4 kts | 183° |
| 2026-05-04 01:23 | 14.49888 | 120.99966 | 82 ft | 0 kts | 175° |
| 2026-05-04 01:24 | 14.49887 | 120.99966 | 82 ft | 0 kts | 173° |
| 2026-05-04 01:24 | 14.49876 | 120.99969 | 82 ft | 2 kts | 163° |
| 2026-05-04 01:24 | 14.49856 | 120.99978 | 82 ft | 3 kts | 152° |
| 2026-05-04 01:25 | 14.49828 | 120.99993 | 82 ft | 5 kts | 147° |
| 2026-05-04 01:25 | 14.49805 | 121.00024 | 82 ft | 6 kts | 110° |
| 2026-05-04 01:25 | 14.49814 | 121.00069 | 82 ft | 7 kts | 59° |
| 2026-05-04 01:25 | 14.49842 | 121.00118 | 82 ft | 8 kts | 60° |
| 2026-05-04 01:26 | 14.49989 | 121.00382 | 82 ft | 84 kts | 60° |
| 2026-05-04 01:26 | 14.50409 | 121.01135 | 83 ft | 154 kts | 58° |
| 2026-05-04 01:26 | 14.50997 | 121.02211 | 436 ft | 183 kts | 63° |
| 2026-05-04 01:26 | 14.51620 | 121.03380 | 1135 ft | 193 kts | 64° |
| 2026-05-04 01:27 | 14.52256 | 121.04593 | 2086 ft | 193 kts | 62° |
| 2026-05-04 01:27 | 14.52924 | 121.05773 | 2786 ft | 198 kts | 61° |
| 2026-05-04 01:27 | 14.53647 | 121.07046 | 3241 ft | 217 kts | 61° |
| 2026-05-04 01:27 | 14.54454 | 121.08476 | 3679 ft | 240 kts | 60° |
| 2026-05-04 01:28 | 14.55319 | 121.10014 | 4252 ft | 257 kts | 60° |
| 2026-05-04 01:28 | 14.56141 | 121.11666 | 5060 ft | 263 kts | 73° |
| 2026-05-04 01:28 | 14.56223 | 121.13524 | 5933 ft | 267 kts | 101° |
| 2026-05-04 01:28 | 14.55457 | 121.15240 | 6787 ft | 273 kts | 126° |
| 2026-05-04 01:29 | 14.54128 | 121.16653 | 7564 ft | 280 kts | 133° |
| 2026-05-04 01:29 | 14.52719 | 121.18076 | 8332 ft | 285 kts | 132° |
| 2026-05-04 01:29 | 14.51301 | 121.19526 | 9088 ft | 288 kts | 132° |
| 2026-05-04 01:29 | 14.49888 | 121.20985 | 9821 ft | 292 kts | 132° |
| 2026-05-04 01:30 | 14.48399 | 121.22427 | 10491 ft | 299 kts | 141° |
| 2026-05-04 01:30 | 14.46445 | 121.23302 | 11014 ft | 316 kts | 168° |
| 2026-05-04 01:30 | 14.44235 | 121.23253 | 11689 ft | 325 kts | 192° |
| 2026-05-04 01:30 | 14.42162 | 121.22267 | 12112 ft | 342 kts | 217° |
| 2026-05-04 01:31 | 14.40474 | 121.20467 | 12592 ft | 352 kts | 229° |